Fontana Dam, NC

11:41 AM EST on February 01, 2015 (GMT -0500)
Tail of the Dragon at Deals Gap | Change Station
CLOSE
Current Station
Personal Weather Station
Location: Robbinsville, NC
Elevation: 1759 ft
Nearby Weather Stations
Active Advisory: Wind Advisory

Elev 1759 ft 35.47 °N, 83.92 °W | Updated 5 minutes ago

Overcast
Overcast
47.1 °F
Feels Like 47 °F
N
0.0
Wind Variable Wind from SE
Gusts 0.0 mph

Today
High -- | Low -- °F
--% Chance of Precip.
Yesterday
High -- | Low -- °F
Precip. -- in
7:35 AM 6:03 PM
Waxing Gibbous, 95% visible
Pressure 30.16 in
Visibility 10.0 miles
Clouds Overcast 3500 ft
Windchill 47 °F
Dew Point 31 °F
Humidity 55%
Rainfall 0.00 in
Snow Depth Not available.
UV 1 out of 12
Pollen .60 out of 12
Air Quality Not available.
Flu Activity Not available.
METAR KRHP 011615Z AUTO 00000KT 10SM OVC035 06/M01 A3016 RMK AO2 T00641011

More Conditions Fewer Conditions

Pressure 30.16 in
Visibility 10.0 miles
Clouds Overcast 3500 ft
Windchill 47 °F
Dew Point 31 °F
Humidity 55%
Rainfall 0.00 in
Snow Depth Not available.
UV 1 out of 12
Pollen .60 out of 12
Air Quality Not available.
Flu Activity Not available.
METAR KRHP 011615Z AUTO 00000KT 10SM OVC035 06/M01 A3016 RMK AO2 T00641011

More Conditions Fewer Conditions

10-Day Weather Forecast

Almanac

Astronomy

Feb. 01, 2015 Rise Set
Actual Time
Civil Twilight
Nautical Twilight
Astronomical Twilight
Moon
Length of Visible Light
Length of Day
Tomorrow will be .
, % of the Moon is Illuminated

Today's Extremes

State Highs State Lows

Community

WunderPhotos

Upload Photos

1,792,367 photos uploaded!

WunderBlogs® & News

Nearby

Air Quality

  Air Quality AQ Index Pollutant
Not available.

Snow Depth

Station Depth Elevation

Earthquake Activity

City Distance Mag. Time & Date
Minimum magnitude displayed is 2.5.

Coastal Water Temperatures

Place Temperature

Nearby Weather Stations